sensor_id;sensor_type;location;lat;lon;timestamp;temperature;humidity
262;DHT22;114;48.260;10.988;2022-08-19T00:01:21;17.70;99.90
262;DHT22;114;48.260;10.988;2022-08-19T00:03:47;17.70;99.90
262;DHT22;114;48.260;10.988;2022-08-19T00:06:14;17.80;99.90
262;DHT22;114;48.260;10.988;2022-08-19T00:08:40;17.80;99.90
262;DHT22;114;48.260;10.988;2022-08-19T00:11:06;17.80;99.90
262;DHT22;114;48.260;10.988;2022-08-19T00:13:33;17.80;99.90
262;DHT22;114;48.260;10.988;2022-08-19T00:16:00;17.90;99.90
262;DHT22;114;48.260;10.988;2022-08-19T00:18:26;17.90;99.90
262;DHT22;114;48.260;10.988;2022-08-19T00:20:52;17.90;99.90
262;DHT22;114;48.260;10.988;2022-08-19T00:23:18;17.80;99.90
262;DHT22;114;48.260;10.988;2022-08-19T00:25:44;17.80;99.90
262;DHT22;114;48.260;10.988;2022-08-19T00:28:10;17.80;99.90
262;DHT22;114;48.260;10.988;2022-08-19T00:30:36;17.80;99.90
262;DHT22;114;48.260;10.988;2022-08-19T00:33:02;17.80;99.90
262;DHT22;114;48.260;10.988;2022-08-19T00:35:28;17.80;99.90
262;DHT22;114;48.260;10.988;2022-08-19T00:37:54;17.90;99.90
262;DHT22;114;48.260;10.988;2022-08-19T00:40:21;17.90;99.90
262;DHT22;114;48.260;10.988;2022-08-19T00:42:47;17.80;99.90
262;DHT22;114;48.260;10.988;2022-08-19T00:45:20;17.70;99.90
262;DHT22;114;48.260;10.988;2022-08-19T00:47:46;17.70;99.90
262;DHT22;114;48.260;10.988;2022-08-19T00:50:15;17.60;99.90
262;DHT22;114;48.260;10.988;2022-08-19T00:52:47;17.60;99.90
262;DHT22;114;48.260;10.988;2022-08-19T00:55:20;17.60;99.90
262;DHT22;114;48.260;10.988;2022-08-19T00:57:54;17.60;99.90
262;DHT22;114;48.260;10.988;2022-08-19T01:00:22;17.60;99.90
262;DHT22;114;48.260;10.988;2022-08-19T01:02:48;17.60;99.90
262;DHT22;114;48.260;10.988;2022-08-19T01:05:20;17.60;99.90
262;DHT22;114;48.260;10.988;2022-08-19T01:07:48;17.60;99.90
262;DHT22;114;48.260;10.988;2022-08-19T01:10:19;17.50;99.90
262;DHT22;114;48.260;10.988;2022-08-19T01:12:46;17.60;99.90
262;DHT22;114;48.260;10.988;2022-08-19T01:15:17;17.60;99.90
262;DHT22;114;48.260;10.988;2022-08-19T01:17:44;17.60;99.90
262;DHT22;114;48.260;10.988;2022-08-19T01:20:19;17.70;99.90
262;DHT22;114;48.260;10.988;2022-08-19T01:22:57;17.70;99.90
262;DHT22;114;48.260;10.988;2022-08-19T01:25:35;17.70;99.90
262;DHT22;114;48.260;10.988;2022-08-19T01:28:05;17.70;99.90
262;DHT22;114;48.260;10.988;2022-08-19T01:30:33;17.70;99.90
262;DHT22;114;48.260;10.988;2022-08-19T01:32:59;17.70;99.90
262;DHT22;114;48.260;10.988;2022-08-19T01:35:28;17.60;99.90
262;DHT22;114;48.260;10.988;2022-08-19T01:38:01;17.60;99.90
262;DHT22;114;48.260;10.988;2022-08-19T01:40:31;17.60;99.90
262;DHT22;114;48.260;10.988;2022-08-19T01:42:59;17.60;99.90
262;DHT22;114;48.260;10.988;2022-08-19T01:45:27;17.60;99.90
262;DHT22;114;48.260;10.988;2022-08-19T01:47:58;17.60;99.90
262;DHT22;114;48.260;10.988;2022-08-19T01:50:24;17.60;99.90
262;DHT22;114;48.260;10.988;2022-08-19T01:52:51;17.50;99.90
262;DHT22;114;48.260;10.988;2022-08-19T01:55:19;17.50;99.90
262;DHT22;114;48.260;10.988;2022-08-19T01:57:51;17.50;99.90
262;DHT22;114;48.260;10.988;2022-08-19T02:00:22;17.50;99.90
262;DHT22;114;48.260;10.988;2022-08-19T02:02:49;17.60;99.90
262;DHT22;114;48.260;10.988;2022-08-19T02:05:15;17.70;99.90
262;DHT22;114;48.260;10.988;2022-08-19T02:07:43;17.70;99.90
262;DHT22;114;48.260;10.988;2022-08-19T02:10:13;17.70;99.90
262;DHT22;114;48.260;10.988;2022-08-19T02:12:40;17.70;99.90
262;DHT22;114;48.260;10.988;2022-08-19T02:15:06;17.70;99.90
262;DHT22;114;48.260;10.988;2022-08-19T02:17:33;17.70;99.90
262;DHT22;114;48.260;10.988;2022-08-19T02:19:59;17.60;99.90
262;DHT22;114;48.260;10.988;2022-08-19T02:22:25;17.60;99.90
262;DHT22;114;48.260;10.988;2022-08-19T02:24:54;17.70;99.90
262;DHT22;114;48.260;10.988;2022-08-19T02:27:22;17.70;99.90
262;DHT22;114;48.260;10.988;2022-08-19T02:29:49;17.70;99.90
262;DHT22;114;48.260;10.988;2022-08-19T02:32:16;17.70;99.90
262;DHT22;114;48.260;10.988;2022-08-19T02:34:42;17.70;99.90
262;DHT22;114;48.260;10.988;2022-08-19T02:37:08;17.70;99.90
262;DHT22;114;48.260;10.988;2022-08-19T02:39:53;17.70;99.90
262;DHT22;114;48.260;10.988;2022-08-19T02:42:19;17.70;99.90
262;DHT22;114;48.260;10.988;2022-08-19T02:44:45;17.60;99.90
262;DHT22;114;48.260;10.988;2022-08-19T02:47:11;17.60;99.90
262;DHT22;114;48.260;10.988;2022-08-19T02:49:39;17.60;99.90
262;DHT22;114;48.260;10.988;2022-08-19T02:52:05;17.60;99.90
262;DHT22;114;48.260;10.988;2022-08-19T02:54:31;17.60;99.90
262;DHT22;114;48.260;10.988;2022-08-19T02:56:57;17.60;99.90
262;DHT22;114;48.260;10.988;2022-08-19T02:59:22;17.60;99.90
262;DHT22;114;48.260;10.988;2022-08-19T03:01:48;17.60;99.90
262;DHT22;114;48.260;10.988;2022-08-19T03:04:15;17.60;99.90
262;DHT22;114;48.260;10.988;2022-08-19T03:06:43;17.50;99.90
262;DHT22;114;48.260;10.988;2022-08-19T03:09:09;17.50;99.90
262;DHT22;114;48.260;10.988;2022-08-19T03:11:37;17.50;99.90
262;DHT22;114;48.260;10.988;2022-08-19T03:14:04;17.40;99.90
262;DHT22;114;48.260;10.988;2022-08-19T03:16:45;17.30;99.90
262;DHT22;114;48.260;10.988;2022-08-19T03:19:11;17.30;99.90
262;DHT22;114;48.260;10.988;2022-08-19T03:21:41;17.20;99.90
262;DHT22;114;48.260;10.988;2022-08-19T03:24:10;17.20;99.90
262;DHT22;114;48.260;10.988;2022-08-19T03:26:48;17.20;99.90
262;DHT22;114;48.260;10.988;2022-08-19T03:29:15;17.20;99.90
262;DHT22;114;48.260;10.988;2022-08-19T03:31:43;17.10;99.90
262;DHT22;114;48.260;10.988;2022-08-19T03:34:12;17.20;99.90
262;DHT22;114;48.260;10.988;2022-08-19T03:36:38;17.20;99.90
262;DHT22;114;48.260;10.988;2022-08-19T03:39:05;17.20;99.90
262;DHT22;114;48.260;10.988;2022-08-19T03:41:37;17.30;99.90
262;DHT22;114;48.260;10.988;2022-08-19T03:44:03;17.20;99.90
262;DHT22;114;48.260;10.988;2022-08-19T03:46:32;17.20;99.90
262;DHT22;114;48.260;10.988;2022-08-19T03:49:01;17.20;99.90
262;DHT22;114;48.260;10.988;2022-08-19T03:51:34;17.30;99.90
262;DHT22;114;48.260;10.988;2022-08-19T03:54:03;17.30;99.90
262;DHT22;114;48.260;10.988;2022-08-19T03:56:29;17.30;99.90
262;DHT22;114;48.260;10.988;2022-08-19T03:58:57;17.30;99.90
262;DHT22;114;48.260;10.988;2022-08-19T04:01:25;17.20;99.90
262;DHT22;114;48.260;10.988;2022-08-19T04:03:57;17.20;99.90
262;DHT22;114;48.260;10.988;2022-08-19T04:06:25;17.20;99.90
262;DHT22;114;48.260;10.988;2022-08-19T04:08:54;17.10;99.90
262;DHT22;114;48.260;10.988;2022-08-19T04:11:27;17.10;99.90
262;DHT22;114;48.260;10.988;2022-08-19T04:13:54;17.10;99.90
262;DHT22;114;48.260;10.988;2022-08-19T04:16:22;17.10;99.90
262;DHT22;114;48.260;10.988;2022-08-19T04:18:49;17.10;99.90
262;DHT22;114;48.260;10.988;2022-08-19T04:21:20;17.10;99.90
262;DHT22;114;48.260;10.988;2022-08-19T04:23:47;17.10;99.90
262;DHT22;114;48.260;10.988;2022-08-19T04:26:24;17.10;99.90
262;DHT22;114;48.260;10.988;2022-08-19T04:28:51;17.10;99.90
262;DHT22;114;48.260;10.988;2022-08-19T04:31:22;17.20;99.90
262;DHT22;114;48.260;10.988;2022-08-19T04:33:53;17.20;99.90
262;DHT22;114;48.260;10.988;2022-08-19T04:36:26;17.20;99.90
262;DHT22;114;48.260;10.988;2022-08-19T04:38:55;17.30;99.90
262;DHT22;114;48.260;10.988;2022-08-19T04:41:25;17.20;99.90
262;DHT22;114;48.260;10.988;2022-08-19T04:44:10;17.30;99.90
262;DHT22;114;48.260;10.988;2022-08-19T04:46:36;17.30;99.90
262;DHT22;114;48.260;10.988;2022-08-19T04:49:03;17.20;99.90
262;DHT22;114;48.260;10.988;2022-08-19T04:51:33;17.30;99.90
262;DHT22;114;48.260;10.988;2022-08-19T04:54:01;17.30;99.90
262;DHT22;114;48.260;10.988;2022-08-19T04:56:28;17.40;99.90
262;DHT22;114;48.260;10.988;2022-08-19T04:58:55;17.40;99.90
262;DHT22;114;48.260;10.988;2022-08-19T05:01:25;17.40;99.90
262;DHT22;114;48.260;10.988;2022-08-19T05:03:51;17.40;99.90
262;DHT22;114;48.260;10.988;2022-08-19T05:06:20;17.40;99.90
262;DHT22;114;48.260;10.988;2022-08-19T05:08:46;17.50;99.90
262;DHT22;114;48.260;10.988;2022-08-19T05:13:41;17.40;99.90
262;DHT22;114;48.260;10.988;2022-08-19T05:16:10;17.40;99.90
262;DHT22;114;48.260;10.988;2022-08-19T05:18:36;17.40;99.90
262;DHT22;114;48.260;10.988;2022-08-19T05:21:22;17.50;99.90
262;DHT22;114;48.260;10.988;2022-08-19T05:24:07;17.50;99.90
262;DHT22;114;48.260;10.988;2022-08-19T05:26:43;17.60;99.90
262;DHT22;114;48.260;10.988;2022-08-19T05:29:10;17.60;99.90
262;DHT22;114;48.260;10.988;2022-08-19T05:31:37;17.60;99.90
262;DHT22;114;48.260;10.988;2022-08-19T05:34:04;17.60;99.90
262;DHT22;114;48.260;10.988;2022-08-19T05:36:44;17.60;99.90
262;DHT22;114;48.260;10.988;2022-08-19T05:39:14;17.70;99.90
262;DHT22;114;48.260;10.988;2022-08-19T05:41:43;17.70;99.90
262;DHT22;114;48.260;10.988;2022-08-19T05:44:09;17.80;99.90
262;DHT22;114;48.260;10.988;2022-08-19T05:46:37;17.80;99.90
262;DHT22;114;48.260;10.988;2022-08-19T05:49:07;17.80;99.90
262;DHT22;114;48.260;10.988;2022-08-19T05:51:36;17.80;99.90
262;DHT22;114;48.260;10.988;2022-08-19T05:54:04;17.70;99.90
262;DHT22;114;48.260;10.988;2022-08-19T05:56:31;17.80;99.90
262;DHT22;114;48.260;10.988;2022-08-19T05:58:58;17.80;99.90
262;DHT22;114;48.260;10.988;2022-08-19T06:01:25;17.80;99.90
262;DHT22;114;48.260;10.988;2022-08-19T06:03:51;17.70;99.90
262;DHT22;114;48.260;10.988;2022-08-19T06:06:18;17.70;99.90
262;DHT22;114;48.260;10.988;2022-08-19T06:08:45;17.70;99.90
262;DHT22;114;48.260;10.988;2022-08-19T06:13:51;17.80;99.90
262;DHT22;114;48.260;10.988;2022-08-19T06:16:19;17.70;99.90
262;DHT22;114;48.260;10.988;2022-08-19T06:18:49;17.80;99.90
262;DHT22;114;48.260;10.988;2022-08-19T06:21:21;17.80;99.90
262;DHT22;114;48.260;10.988;2022-08-19T06:23:48;17.80;99.90
262;DHT22;114;48.260;10.988;2022-08-19T06:26:15;17.90;99.90
262;DHT22;114;48.260;10.988;2022-08-19T06:28:41;17.90;99.90
262;DHT22;114;48.260;10.988;2022-08-19T06:31:14;17.90;99.90
262;DHT22;114;48.260;10.988;2022-08-19T06:33:42;18.00;99.90
262;DHT22;114;48.260;10.988;2022-08-19T06:36:34;18.00;99.90
262;DHT22;114;48.260;10.988;2022-08-19T06:39:05;18.10;99.90
262;DHT22;114;48.260;10.988;2022-08-19T06:41:35;18.00;99.70
262;DHT22;114;48.260;10.988;2022-08-19T06:44:01;18.10;99.70
262;DHT22;114;48.260;10.988;2022-08-19T06:46:27;18.10;99.30
262;DHT22;114;48.260;10.988;2022-08-19T06:48:53;18.10;98.30
262;DHT22;114;48.260;10.988;2022-08-19T06:51:21;18.10;97.80
262;DHT22;114;48.260;10.988;2022-08-19T06:53:49;18.10;97.50
262;DHT22;114;48.260;10.988;2022-08-19T06:56:17;18.10;97.90
262;DHT22;114;48.260;10.988;2022-08-19T06:58:44;18.20;97.30
262;DHT22;114;48.260;10.988;2022-08-19T07:01:10;18.10;98.00
262;DHT22;114;48.260;10.988;2022-08-19T07:03:37;18.20;98.30
262;DHT22;114;48.260;10.988;2022-08-19T07:06:08;18.20;97.20
262;DHT22;114;48.260;10.988;2022-08-19T07:08:36;18.30;97.30
262;DHT22;114;48.260;10.988;2022-08-19T07:11:07;18.20;97.20
262;DHT22;114;48.260;10.988;2022-08-19T07:13:34;18.70;96.00
262;DHT22;114;48.260;10.988;2022-08-19T07:16:05;18.50;94.40
262;DHT22;114;48.260;10.988;2022-08-19T07:18:31;18.40;95.20
262;DHT22;114;48.260;10.988;2022-08-19T07:21:10;18.50;95.20
262;DHT22;114;48.260;10.988;2022-08-19T07:23:37;18.30;95.20
262;DHT22;114;48.260;10.988;2022-08-19T07:26:12;18.50;95.80
262;DHT22;114;48.260;10.988;2022-08-19T07:28:38;18.50;94.80
262;DHT22;114;48.260;10.988;2022-08-19T07:31:12;18.40;94.40
262;DHT22;114;48.260;10.988;2022-08-19T07:33:39;18.30;96.30
262;DHT22;114;48.260;10.988;2022-08-19T07:36:07;18.40;96.40
262;DHT22;114;48.260;10.988;2022-08-19T07:38:35;18.30;95.40
262;DHT22;114;48.260;10.988;2022-08-19T07:41:01;18.20;96.10
262;DHT22;114;48.260;10.988;2022-08-19T07:43:28;18.20;97.30
262;DHT22;114;48.260;10.988;2022-08-19T07:45:55;18.20;97.60
262;DHT22;114;48.260;10.988;2022-08-19T07:48:27;18.30;98.20
262;DHT22;114;48.260;10.988;2022-08-19T07:50:55;18.30;98.20
262;DHT22;114;48.260;10.988;2022-08-19T07:53:23;18.30;99.00
262;DHT22;114;48.260;10.988;2022-08-19T07:55:50;18.30;99.30
262;DHT22;114;48.260;10.988;2022-08-19T07:58:19;18.10;99.90
262;DHT22;114;48.260;10.988;2022-08-19T08:00:48;18.10;99.90
262;DHT22;114;48.260;10.988;2022-08-19T08:03:16;18.10;99.90
262;DHT22;114;48.260;10.988;2022-08-19T08:05:42;18.20;99.90
262;DHT22;114;48.260;10.988;2022-08-19T08:08:27;18.20;99.90
262;DHT22;114;48.260;10.988;2022-08-19T08:11:04;18.10;99.90
262;DHT22;114;48.260;10.988;2022-08-19T08:13:30;18.00;99.90
262;DHT22;114;48.260;10.988;2022-08-19T08:15:59;17.90;99.90
262;DHT22;114;48.260;10.988;2022-08-19T08:18:28;17.90;99.90
262;DHT22;114;48.260;10.988;2022-08-19T08:20:55;17.80;99.90
262;DHT22;114;48.260;10.988;2022-08-19T08:23:22;17.80;99.90
262;DHT22;114;48.260;10.988;2022-08-19T08:25:52;17.80;99.90
262;DHT22;114;48.260;10.988;2022-08-19T08:28:20;17.90;99.90
262;DHT22;114;48.260;10.988;2022-08-19T08:30:48;17.80;99.90
262;DHT22;114;48.260;10.988;2022-08-19T08:33:22;17.80;99.90
262;DHT22;114;48.260;10.988;2022-08-19T08:35:48;17.80;99.90
262;DHT22;114;48.260;10.988;2022-08-19T08:38:15;17.80;99.90
262;DHT22;114;48.260;10.988;2022-08-19T08:40:57;17.70;99.90
262;DHT22;114;48.260;10.988;2022-08-19T08:43:39;17.70;99.90
262;DHT22;114;48.260;10.988;2022-08-19T08:46:13;17.70;99.90
262;DHT22;114;48.260;10.988;2022-08-19T08:52:10;17.70;99.90
262;DHT22;114;48.260;10.988;2022-08-19T08:54:44;17.70;99.90
262;DHT22;114;48.260;10.988;2022-08-19T09:00:24;17.70;99.90
262;DHT22;114;48.260;10.988;2022-08-19T09:02:52;17.70;99.90
262;DHT22;114;48.260;10.988;2022-08-19T09:05:21;17.70;99.90
262;DHT22;114;48.260;10.988;2022-08-19T09:08:07;17.70;99.90
262;DHT22;114;48.260;10.988;2022-08-19T09:16:07;17.80;99.90
262;DHT22;114;48.260;10.988;2022-08-19T09:18:50;17.90;99.90
262;DHT22;114;48.260;10.988;2022-08-19T09:21:22;17.90;99.90
262;DHT22;114;48.260;10.988;2022-08-19T09:23:49;17.90;99.90
262;DHT22;114;48.260;10.988;2022-08-19T09:26:17;17.90;99.90
262;DHT22;114;48.260;10.988;2022-08-19T09:28:45;18.00;99.90
262;DHT22;114;48.260;10.988;2022-08-19T09:31:18;17.90;99.90
262;DHT22;114;48.260;10.988;2022-08-19T09:33:46;17.90;99.90
262;DHT22;114;48.260;10.988;2022-08-19T09:36:20;17.90;99.90
262;DHT22;114;48.260;10.988;2022-08-19T09:38:48;17.90;99.90
262;DHT22;114;48.260;10.988;2022-08-19T09:41:17;17.80;99.90
262;DHT22;114;48.260;10.988;2022-08-19T09:43:49;17.90;99.90
262;DHT22;114;48.260;10.988;2022-08-19T09:46:18;17.90;99.90
262;DHT22;114;48.260;10.988;2022-08-19T09:48:47;17.90;99.90
262;DHT22;114;48.260;10.988;2022-08-19T09:51:17;17.90;99.90
262;DHT22;114;48.260;10.988;2022-08-19T09:53:44;17.80;99.90
262;DHT22;114;48.260;10.988;2022-08-19T09:56:13;17.80;99.90
262;DHT22;114;48.260;10.988;2022-08-19T09:58:40;17.80;99.90
262;DHT22;114;48.260;10.988;2022-08-19T10:01:07;17.70;99.90
262;DHT22;114;48.260;10.988;2022-08-19T10:03:35;17.60;99.90
262;DHT22;114;48.260;10.988;2022-08-19T10:06:04;17.50;99.90
262;DHT22;114;48.260;10.988;2022-08-19T10:08:33;17.50;99.90
262;DHT22;114;48.260;10.988;2022-08-19T10:11:00;17.50;99.90
262;DHT22;114;48.260;10.988;2022-08-19T10:13:29;17.40;99.90
262;DHT22;114;48.260;10.988;2022-08-19T10:16:01;17.30;99.90
262;DHT22;114;48.260;10.988;2022-08-19T10:18:28;17.30;99.90
262;DHT22;114;48.260;10.988;2022-08-19T10:21:07;17.30;99.90
262;DHT22;114;48.260;10.988;2022-08-19T10:23:38;17.30;99.90
262;DHT22;114;48.260;10.988;2022-08-19T10:26:06;17.30;99.90
262;DHT22;114;48.260;10.988;2022-08-19T10:28:36;17.30;99.90
262;DHT22;114;48.260;10.988;2022-08-19T10:31:19;17.30;99.90
262;DHT22;114;48.260;10.988;2022-08-19T10:33:47;17.30;99.90
262;DHT22;114;48.260;10.988;2022-08-19T10:36:19;17.30;99.90
262;DHT22;114;48.260;10.988;2022-08-19T10:38:48;17.40;99.90
262;DHT22;114;48.260;10.988;2022-08-19T10:41:18;17.40;99.90
262;DHT22;114;48.260;10.988;2022-08-19T10:43:45;17.40;99.90
262;DHT22;114;48.260;10.988;2022-08-19T10:46:15;17.40;99.90
262;DHT22;114;48.260;10.988;2022-08-19T10:48:42;17.40;99.90
262;DHT22;114;48.260;10.988;2022-08-19T10:51:09;17.30;99.90
262;DHT22;114;48.260;10.988;2022-08-19T10:53:57;17.30;99.90
262;DHT22;114;48.260;10.988;2022-08-19T10:56:26;17.40;99.90
262;DHT22;114;48.260;10.988;2022-08-19T10:59:10;17.30;99.90
262;DHT22;114;48.260;10.988;2022-08-19T11:01:40;17.30;99.90
262;DHT22;114;48.260;10.988;2022-08-19T11:04:06;17.30;99.90
262;DHT22;114;48.260;10.988;2022-08-19T11:06:36;17.30;99.90
262;DHT22;114;48.260;10.988;2022-08-19T11:09:05;17.30;99.90
262;DHT22;114;48.260;10.988;2022-08-19T11:11:31;17.30;99.90
262;DHT22;114;48.260;10.988;2022-08-19T11:14:16;17.30;99.90
262;DHT22;114;48.260;10.988;2022-08-19T11:16:44;17.30;99.90
262;DHT22;114;48.260;10.988;2022-08-19T11:19:11;17.30;99.90
262;DHT22;114;48.260;10.988;2022-08-19T11:21:40;17.30;99.90
262;DHT22;114;48.260;10.988;2022-08-19T11:24:14;17.30;99.90
262;DHT22;114;48.260;10.988;2022-08-19T11:26:42;17.30;99.90
262;DHT22;114;48.260;10.988;2022-08-19T11:29:10;17.30;99.90
262;DHT22;114;48.260;10.988;2022-08-19T11:31:40;17.50;99.90
262;DHT22;114;48.260;10.988;2022-08-19T11:34:10;17.40;99.90
262;DHT22;114;48.260;10.988;2022-08-19T11:36:41;17.50;99.90
262;DHT22;114;48.260;10.988;2022-08-19T11:39:09;17.60;99.90
262;DHT22;114;48.260;10.988;2022-08-19T11:41:35;17.60;99.90
262;DHT22;114;48.260;10.988;2022-08-19T11:44:02;17.60;99.90
262;DHT22;114;48.260;10.988;2022-08-19T11:46:32;17.80;99.90
262;DHT22;114;48.260;10.988;2022-08-19T11:48:59;17.70;99.90
262;DHT22;114;48.260;10.988;2022-08-19T11:51:26;17.90;99.90
262;DHT22;114;48.260;10.988;2022-08-19T11:53:56;17.90;99.90
262;DHT22;114;48.260;10.988;2022-08-19T11:56:23;17.90;99.90
262;DHT22;114;48.260;10.988;2022-08-19T11:58:51;18.00;99.90
262;DHT22;114;48.260;10.988;2022-08-19T12:01:19;18.20;99.90
262;DHT22;114;48.260;10.988;2022-08-19T12:03:47;18.30;99.90
262;DHT22;114;48.260;10.988;2022-08-19T12:06:17;18.10;99.90
262;DHT22;114;48.260;10.988;2022-08-19T12:08:44;18.20;99.90
262;DHT22;114;48.260;10.988;2022-08-19T12:11:12;18.20;99.90
262;DHT22;114;48.260;10.988;2022-08-19T12:13:40;18.30;99.90
262;DHT22;114;48.260;10.988;2022-08-19T12:16:13;18.40;99.90
262;DHT22;114;48.260;10.988;2022-08-19T12:18:41;18.30;99.90
262;DHT22;114;48.260;10.988;2022-08-19T12:21:14;18.40;99.90
262;DHT22;114;48.260;10.988;2022-08-19T12:23:43;18.60;99.90
262;DHT22;114;48.260;10.988;2022-08-19T12:26:11;18.80;99.90
262;DHT22;114;48.260;10.988;2022-08-19T12:28:37;18.70;97.80
262;DHT22;114;48.260;10.988;2022-08-19T12:31:03;18.90;99.60
262;DHT22;114;48.260;10.988;2022-08-19T12:33:30;19.00;96.40
262;DHT22;114;48.260;10.988;2022-08-19T12:36:03;19.00;95.90
262;DHT22;114;48.260;10.988;2022-08-19T12:38:30;19.50;97.10
262;DHT22;114;48.260;10.988;2022-08-19T12:40:56;19.60;93.20
262;DHT22;114;48.260;10.988;2022-08-19T12:43:23;19.40;92.80
262;DHT22;114;48.260;10.988;2022-08-19T12:45:49;19.30;92.40
262;DHT22;114;48.260;10.988;2022-08-19T12:48:15;19.10;94.70
262;DHT22;114;48.260;10.988;2022-08-19T12:50:44;19.00;94.90
262;DHT22;114;48.260;10.988;2022-08-19T12:53:14;18.80;94.10
262;DHT22;114;48.260;10.988;2022-08-19T12:55:41;18.90;97.90
262;DHT22;114;48.260;10.988;2022-08-19T12:58:08;18.90;97.70
262;DHT22;114;48.260;10.988;2022-08-19T13:00:34;19.00;94.30
262;DHT22;114;48.260;10.988;2022-08-19T13:03:00;19.20;94.70
262;DHT22;114;48.260;10.988;2022-08-19T13:05:31;19.20;92.50
262;DHT22;114;48.260;10.988;2022-08-19T13:07:58;19.50;93.00
262;DHT22;114;48.260;10.988;2022-08-19T13:10:33;19.50;91.60
262;DHT22;114;48.260;10.988;2022-08-19T13:13:04;19.80;91.30
262;DHT22;114;48.260;10.988;2022-08-19T13:15:40;20.00;83.40
262;DHT22;114;48.260;10.988;2022-08-19T13:18:07;19.80;80.00
262;DHT22;114;48.260;10.988;2022-08-19T13:20:36;19.90;81.10
262;DHT22;114;48.260;10.988;2022-08-19T13:23:03;20.10;79.30
262;DHT22;114;48.260;10.988;2022-08-19T13:25:29;20.30;82.90
262;DHT22;114;48.260;10.988;2022-08-19T13:27:58;20.50;70.80
262;DHT22;114;48.260;10.988;2022-08-19T13:30:24;20.50;73.80
262;DHT22;114;48.260;10.988;2022-08-19T13:33:09;20.20;77.00
262;DHT22;114;48.260;10.988;2022-08-19T13:35:47;20.10;76.20
262;DHT22;114;48.260;10.988;2022-08-19T13:38:19;20.30;74.60
262;DHT22;114;48.260;10.988;2022-08-19T13:40:46;20.30;73.10
262;DHT22;114;48.260;10.988;2022-08-19T13:43:12;20.20;75.70
262;DHT22;114;48.260;10.988;2022-08-19T13:45:39;20.10;84.90
262;DHT22;114;48.260;10.988;2022-08-19T13:48:07;19.90;85.90
262;DHT22;114;48.260;10.988;2022-08-19T13:50:38;19.60;86.50
262;DHT22;114;48.260;10.988;2022-08-19T13:53:08;19.50;87.60
262;DHT22;114;48.260;10.988;2022-08-19T13:55:36;19.40;91.30
262;DHT22;114;48.260;10.988;2022-08-19T13:58:02;19.20;90.60
262;DHT22;114;48.260;10.988;2022-08-19T14:00:31;19.10;93.80
262;DHT22;114;48.260;10.988;2022-08-19T14:02:57;19.20;94.40
262;DHT22;114;48.260;10.988;2022-08-19T14:05:26;19.10;94.70
262;DHT22;114;48.260;10.988;2022-08-19T14:07:52;19.00;93.70
262;DHT22;114;48.260;10.988;2022-08-19T14:10:19;19.10;94.00
262;DHT22;114;48.260;10.988;2022-08-19T14:12:46;19.00;95.30
262;DHT22;114;48.260;10.988;2022-08-19T14:15:13;18.90;94.60
262;DHT22;114;48.260;10.988;2022-08-19T14:17:41;18.80;96.50
262;DHT22;114;48.260;10.988;2022-08-19T14:20:08;18.80;97.40
262;DHT22;114;48.260;10.988;2022-08-19T14:22:40;18.70;97.70
262;DHT22;114;48.260;10.988;2022-08-19T14:25:13;18.60;98.30
262;DHT22;114;48.260;10.988;2022-08-19T14:27:40;18.50;99.20
262;DHT22;114;48.260;10.988;2022-08-19T14:30:09;18.40;99.90
262;DHT22;114;48.260;10.988;2022-08-19T14:32:35;18.40;99.90
262;DHT22;114;48.260;10.988;2022-08-19T14:35:03;18.40;99.90
262;DHT22;114;48.260;10.988;2022-08-19T14:37:29;18.30;99.90
262;DHT22;114;48.260;10.988;2022-08-19T14:39:57;18.30;99.90
262;DHT22;114;48.260;10.988;2022-08-19T14:42:23;18.30;99.90
262;DHT22;114;48.260;10.988;2022-08-19T14:44:48;18.30;99.90
262;DHT22;114;48.260;10.988;2022-08-19T14:47:14;18.20;99.90
262;DHT22;114;48.260;10.988;2022-08-19T14:49:41;18.10;99.90
262;DHT22;114;48.260;10.988;2022-08-19T14:52:07;18.20;99.90
262;DHT22;114;48.260;10.988;2022-08-19T14:54:34;18.10;99.90
262;DHT22;114;48.260;10.988;2022-08-19T14:57:00;18.00;99.90
262;DHT22;114;48.260;10.988;2022-08-19T14:59:26;18.00;99.90
262;DHT22;114;48.260;10.988;2022-08-19T15:01:52;18.00;99.90
262;DHT22;114;48.260;10.988;2022-08-19T15:04:17;18.00;99.90
262;DHT22;114;48.260;10.988;2022-08-19T15:06:43;17.90;99.90
262;DHT22;114;48.260;10.988;2022-08-19T15:09:10;18.00;99.90
262;DHT22;114;48.260;10.988;2022-08-19T15:11:36;18.00;99.90
262;DHT22;114;48.260;10.988;2022-08-19T15:14:06;18.00;99.90
262;DHT22;114;48.260;10.988;2022-08-19T15:16:33;18.00;99.90
262;DHT22;114;48.260;10.988;2022-08-19T15:18:59;18.00;99.90
262;DHT22;114;48.260;10.988;2022-08-19T15:21:26;17.90;99.90
262;DHT22;114;48.260;10.988;2022-08-19T15:23:54;18.00;99.90
262;DHT22;114;48.260;10.988;2022-08-19T15:26:20;18.00;99.90
262;DHT22;114;48.260;10.988;2022-08-19T15:28:46;17.90;99.90
262;DHT22;114;48.260;10.988;2022-08-19T15:31:15;18.00;99.90
262;DHT22;114;48.260;10.988;2022-08-19T15:33:42;18.00;99.90
262;DHT22;114;48.260;10.988;2022-08-19T15:36:10;17.90;99.90
262;DHT22;114;48.260;10.988;2022-08-19T15:38:38;17.90;99.90
262;DHT22;114;48.260;10.988;2022-08-19T15:41:04;17.90;99.90
262;DHT22;114;48.260;10.988;2022-08-19T15:44:03;17.90;99.90
262;DHT22;114;48.260;10.988;2022-08-19T15:46:31;17.90;99.90
262;DHT22;114;48.260;10.988;2022-08-19T15:48:58;17.90;99.90
262;DHT22;114;48.260;10.988;2022-08-19T15:51:26;17.80;99.90
262;DHT22;114;48.260;10.988;2022-08-19T15:53:53;18.00;99.90
262;DHT22;114;48.260;10.988;2022-08-19T15:56:19;18.00;99.90
262;DHT22;114;48.260;10.988;2022-08-19T15:58:45;18.00;99.90
262;DHT22;114;48.260;10.988;2022-08-19T16:01:29;18.10;99.90
262;DHT22;114;48.260;10.988;2022-08-19T16:04:11;18.10;99.90
262;DHT22;114;48.260;10.988;2022-08-19T16:06:58;18.10;99.90
262;DHT22;114;48.260;10.988;2022-08-19T16:09:27;18.20;99.90
262;DHT22;114;48.260;10.988;2022-08-19T16:11:55;18.10;99.90
262;DHT22;114;48.260;10.988;2022-08-19T16:14:21;18.20;99.90
262;DHT22;114;48.260;10.988;2022-08-19T16:16:47;18.10;99.90
262;DHT22;114;48.260;10.988;2022-08-19T16:19:16;18.10;99.90
262;DHT22;114;48.260;10.988;2022-08-19T16:21:44;18.10;99.90
262;DHT22;114;48.260;10.988;2022-08-19T16:24:13;18.00;99.90
262;DHT22;114;48.260;10.988;2022-08-19T16:26:40;18.00;99.90
262;DHT22;114;48.260;10.988;2022-08-19T16:29:07;17.90;99.90
262;DHT22;114;48.260;10.988;2022-08-19T16:31:34;17.80;99.90
262;DHT22;114;48.260;10.988;2022-08-19T16:34:01;17.70;99.90
262;DHT22;114;48.260;10.988;2022-08-19T16:36:27;17.60;99.90
262;DHT22;114;48.260;10.988;2022-08-19T16:38:55;17.60;99.90
262;DHT22;114;48.260;10.988;2022-08-19T16:41:21;17.60;99.90
262;DHT22;114;48.260;10.988;2022-08-19T16:43:48;17.60;99.90
262;DHT22;114;48.260;10.988;2022-08-19T16:46:21;17.60;99.90